Etusivu
METAR-TAF:

METAR-TAF

Lentoasemat :

Kansas Cityn kansainvälinen lentoasema

Kansas City, Missouri, Yhdysvallat

Leveyspiiri: 39-17-50N, Pituuspiiri: 094-43-50W, korkeus merenpinnasta: 312 m

Tämänhetkinen sää

Tämä raportti tehtiin 1 tunti ja 7 minuuttia sitten, kello 09.53 UTC
Tuuli 4 kn luoteesta
Lämpötila -13°C
Kosteus 78%
Ilmanpaine 1038 hPa
Näkyvyys: 16.1 km
selkeää

METAR: KMCI 120953Z 32004KT 10SM CLR M13/M16 A3064 RMK AO2 SLP393 T11281161 $

Aika: 05:00 (11:00 UTC)

Sääennuste

Tämä raportti tehtiin 5 tuntia ja 40 minuuttia sitten, kello 05.20 UTC
Ennuste voimassa 12. päivästä klo 06 UTC - 13. päivään klo 06 UTC
Tuuli 8 kn pohjoisen/luoteesta
Näkyvyys: 10 km
selkeää
From 12. päivästä klo 1200 UTC
Tuuli 5 kn eri suunnista
Näkyvyys: 10 km
selkeää
From 12. päivästä klo 2000 UTC
Tuuli 8 kn etelästä
Näkyvyys: 10 km
Muutamia pilviä 25000 ft:n korkeudessa

TAF: KMCI 120520Z 1206/1306 33008KT P6SM SKC FM121200 VRB05KT P6SM SKC FM122000 18008KT P6SM FEW250

Säähavainnot ja -ennusteet yli 4000 lentoasemalta (METAR- ja TAF-raportit).

Käytössä olevat sääasemat on merkitty karttaan keltaisilla ja punaisilla pisteillä.

Aseta hiiri pisteen päälle nähdäksesi sääaseman nimen.

Klikkaa sitten nähdäksesi säähavainnot ja -ennusteet.

Kartan vaihtaminen: klikkaa mustalla rastilla varustettuja vihreitä pisteitä, niin voit zoomata sisään; viivalla varustettua vihreää pistettä, niin voit zoomata ulos tai vihreitä nuolia, niin pääset viereisille kartoille.


METAR-TAF: